Pagrindinis puslapis
METAR-TAF:

METAR-TAF

Oro uostai :

Tulča, Rumunija

platuma: 45-11N, ilguma: 028-49E, Aukštis: 4 m

Dabartinis oras

Ataskaita buvo paskelbta 19 minutes, ne 00:00 UTC
Vėjas 14 kt iš Šiaurės Vakarų
Temperatūra 8°C
Drėgmė 87%
Slėgis 1016 hPa
Matomumas: 8000 m

METAR: LRTC 010000Z AUTO 31014KT 8000 FEW028/// SCT035/// BKN042/// 08/06 Q1016

Laikas: 02:19 (00:19 UTC)

Prognozė

Ataskaita buvo paskelbta 10 valandos ir 19 minutes, ne 14:00 UTC
Prognozė galioja nuo 31 metu 15 UTC su 01 metu 00 UTC
Vėjas 8 kt iš Šiaurės Vakarų
Matomumas 10 km arba daugiau
nėra debesų žemiau 1500 m ir nėra kamuolinių lietaus debesų
Laikinai
nuo 31 metu 15 UTC su 31 metu 18 UTC
Matomumas: 5000 m
Su prošvaistėmis ne aukštis 1000 ft
Apsiniaukę ne aukštis 3000 ft
lietus, rūkana

TAF: LRTC 311400Z 3115/0100 32008KT CAVOK TEMPO 3115/3118 5000 -RA BR BKN010 OVC030

Orai ataskaitas ir orų prognozės (METAR, TAF).

turimą stotys yra geltonos ir raudonos taškus žemėlapyje.

Perkelti pele per norėdami pamatyti stoties vardą.

Tada spustelėkite, norėdami matyti oro stebėjimo ir prognozės.

Norėdami pakeisti žemėlapį: spustelėkite ant žalios mygtukų su juodo kryžiaus žemyn,; žalią mygtuką su brūkšneliu, jei norite nutolinti; arba žalių rodyklių gretimoms žemėlapius.


METAR-TAF: